createdAt,value
2023-05-21T00:00:48.602Z,17.8
2023-05-21T00:02:04.914Z,18.9
2023-05-21T00:03:21.201Z,18.4
2023-05-21T00:04:37.496Z,20.2
2023-05-21T00:05:53.779Z,17.2
2023-05-21T00:07:10.092Z,16
2023-05-21T00:08:25.383Z,17.6
2023-05-21T00:09:41.685Z,17.1
2023-05-21T00:10:57.989Z,16.7
2023-05-21T00:12:14.285Z,16.9
2023-05-21T00:13:30.571Z,18.3
2023-05-21T00:14:46.857Z,19.2
2023-05-21T00:16:03.164Z,21
2023-05-21T00:17:19.458Z,17.2
2023-05-21T00:18:35.745Z,19.8
2023-05-21T00:19:52.037Z,20.2
2023-05-21T00:21:08.323Z,18.8
2023-05-21T00:22:24.621Z,16
2023-05-21T00:23:40.929Z,17.6
2023-05-21T00:24:56.228Z,18.4
2023-05-21T00:26:12.527Z,19.4
2023-05-21T00:27:28.818Z,17.8
2023-05-21T00:28:45.108Z,18.7
2023-05-21T00:30:01.402Z,19
2023-05-21T00:31:17.704Z,19.1
2023-05-21T00:32:33.947Z,19.6
2023-05-21T00:33:50.205Z,18.1
2023-05-21T00:35:06.482Z,17.9
2023-05-21T00:36:22.784Z,19.9
2023-05-21T00:37:39.073Z,18.4
2023-05-21T00:38:55.378Z,20.9
2023-05-21T00:40:11.677Z,19.2
2023-05-21T00:41:26.973Z,16.6
2023-05-21T00:42:43.266Z,20.6
2023-05-21T00:43:59.571Z,20.5
2023-05-21T00:45:15.872Z,19.6
2023-05-21T00:46:32.153Z,21.9
2023-05-21T00:47:48.442Z,20.9
2023-05-21T00:49:04.745Z,19.5
2023-05-21T00:50:21.041Z,21
2023-05-21T00:51:37.328Z,21
2023-05-21T00:52:53.622Z,20.4
2023-05-21T00:54:09.926Z,21.4
2023-05-21T00:55:26.218Z,19.1
2023-05-21T00:56:42.518Z,21.2
2023-05-21T00:57:57.818Z,20
2023-05-21T00:59:14.119Z,19.1
2023-05-21T01:00:30.403Z,19.9
2023-05-21T01:01:46.709Z,20
2023-05-21T01:03:02.998Z,21.2
2023-05-21T01:04:19.297Z,20.7
2023-05-21T01:05:35.593Z,23.7
2023-05-21T01:06:51.884Z,21.1
2023-05-21T01:08:08.181Z,23.8
2023-05-21T01:09:24.473Z,18.7
2023-05-21T01:10:40.774Z,21.1
2023-05-21T01:11:57.058Z,20.2
2023-05-21T01:13:13.344Z,21.8
2023-05-21T01:14:28.670Z,23
2023-05-21T01:15:44.959Z,24.2
2023-05-21T01:17:01.257Z,22.5
2023-05-21T01:18:17.544Z,18.7
2023-05-21T01:19:33.850Z,22
2023-05-21T01:20:50.140Z,19
2023-05-21T01:22:06.433Z,22.1
2023-05-21T01:23:22.717Z,21
2023-05-21T01:24:39.013Z,22.2
2023-05-21T01:25:55.310Z,22.5
2023-05-21T01:27:11.601Z,21.4
2023-05-21T01:28:27.908Z,25.6
2023-05-21T01:29:44.194Z,19
2023-05-21T01:30:59.503Z,21.2
2023-05-21T01:32:15.808Z,22.2
2023-05-21T01:33:32.085Z,20.7
2023-05-21T01:34:48.388Z,19.9
2023-05-21T01:36:04.687Z,20.9
2023-05-21T01:37:20.969Z,20.4
2023-05-21T01:38:37.271Z,19
2023-05-21T01:39:53.564Z,21.7
2023-05-21T01:41:09.854Z,19.2
2023-05-21T01:42:26.151Z,19.7
2023-05-21T01:43:42.456Z,20.8
2023-05-21T01:44:58.744Z,23.4
2023-05-21T01:46:15.044Z,20.4
2023-05-21T01:47:30.340Z,21.8
2023-05-21T01:48:46.639Z,19.8
2023-05-21T01:50:02.936Z,19.6
2023-05-21T01:51:19.238Z,21.3
2023-05-21T01:52:35.533Z,19.2
2023-05-21T01:53:51.827Z,21.6
2023-05-21T01:55:08.117Z,20.1
2023-05-21T01:56:24.407Z,21.4
2023-05-21T01:57:40.695Z,21.8
2023-05-21T01:58:56.995Z,22.5
2023-05-21T02:00:13.283Z,20.6
2023-05-21T02:01:29.596Z,18
2023-05-21T02:02:45.872Z,21.2
2023-05-21T02:04:01.190Z,20.5
2023-05-21T02:05:17.481Z,21.8
2023-05-21T02:06:33.770Z,20.4
2023-05-21T02:07:50.072Z,22.7
2023-05-21T02:09:06.360Z,21.9
2023-05-21T02:10:22.672Z,20
2023-05-21T02:11:37.969Z,21.5
2023-05-21T02:12:54.265Z,23.2
2023-05-21T02:14:10.559Z,20.1
2023-05-21T02:15:26.868Z,20.4
2023-05-21T02:16:43.154Z,20
2023-05-21T02:17:59.450Z,20.7
2023-05-21T02:19:15.743Z,20.9
2023-05-21T02:20:32.040Z,21.9
2023-05-21T02:21:48.334Z,19
2023-05-21T02:23:04.615Z,20.1
2023-05-21T02:24:20.927Z,17.8
2023-05-21T02:25:37.217Z,20.7
2023-05-21T02:26:53.500Z,21.3
2023-05-21T02:28:08.821Z,17.7
2023-05-21T02:29:25.116Z,20.9
2023-05-21T02:30:41.415Z,21.4
2023-05-21T02:31:57.697Z,22.4
2023-05-21T02:33:13.993Z,20.2
2023-05-21T02:34:30.285Z,21.9
2023-05-21T02:35:46.585Z,19.2
2023-05-21T02:37:02.873Z,22.1
2023-05-21T02:38:19.175Z,22.3
2023-05-21T02:39:35.462Z,22.9
2023-05-21T02:40:51.758Z,21.1
2023-05-21T02:42:08.048Z,21.8
2023-05-21T02:43:24.301Z,22.6
2023-05-21T02:44:39.599Z,21.1
2023-05-21T02:45:55.895Z,23.7
2023-05-21T02:47:12.204Z,25.1
2023-05-21T02:48:28.445Z,21.9
2023-05-21T02:49:44.753Z,21.1
2023-05-21T02:51:01.041Z,20.9
2023-05-21T02:52:17.323Z,20.6
2023-05-21T02:53:33.628Z,19.2
2023-05-21T02:54:49.929Z,19
2023-05-21T02:56:06.211Z,21.1
2023-05-21T02:57:22.500Z,21.7
2023-05-21T02:58:38.811Z,21.1
2023-05-21T02:59:55.054Z,22.3
2023-05-21T03:01:10.313Z,18.4
2023-05-21T03:02:26.558Z,22.2
2023-05-21T03:03:42.787Z,18.9
2023-05-21T03:04:59.027Z,19.5
2023-05-21T03:06:15.277Z,21
2023-05-21T03:07:31.529Z,18.6
2023-05-21T03:08:47.760Z,20.2
2023-05-21T03:10:04.017Z,18
2023-05-21T03:11:20.236Z,20.8
2023-05-21T03:12:36.491Z,20.5
2023-05-21T03:13:52.726Z,22.2
2023-05-21T03:15:08.962Z,23.4
2023-05-21T03:16:25.212Z,26.2
2023-05-21T03:17:40.455Z,20.9
2023-05-21T03:18:56.701Z,22.1
2023-05-21T03:20:12.947Z,19.2
2023-05-21T03:21:29.193Z,17.5
2023-05-21T03:22:45.434Z,22.7
2023-05-21T03:24:01.674Z,21.6
2023-05-21T03:25:17.906Z,20.5
2023-05-21T03:26:34.143Z,21.1
2023-05-21T03:27:50.393Z,20.5
2023-05-21T03:29:06.619Z,22.2
2023-05-21T03:30:22.868Z,22
2023-05-21T03:31:39.115Z,21.6
2023-05-21T03:32:55.344Z,20.6
2023-05-21T03:34:10.612Z,24.4
2023-05-21T03:35:26.845Z,20.4
2023-05-21T03:36:43.089Z,22.2
2023-05-21T03:37:59.324Z,19.7
2023-05-21T03:39:15.570Z,20.5
2023-05-21T03:40:31.802Z,21.1
2023-05-21T03:41:48.053Z,21.8
2023-05-21T03:43:04.287Z,19.6
2023-05-21T03:44:20.517Z,22.3
2023-05-21T03:45:36.769Z,22.7
2023-05-21T03:46:53.006Z,20.7
2023-05-21T03:48:09.240Z,24.7
2023-05-21T03:49:25.496Z,24.1
2023-05-21T03:51:56.977Z,21.2
2023-05-21T03:53:13.232Z,21
2023-05-21T03:54:29.463Z,22.3
2023-05-21T03:55:45.714Z,21.6
2023-05-21T03:57:01.953Z,23.6
2023-05-21T03:58:18.184Z,22.8
2023-05-21T03:59:34.421Z,21.5
2023-05-21T04:00:50.675Z,21
2023-05-21T04:02:06.917Z,22
2023-05-21T04:03:23.151Z,22.9
2023-05-21T04:04:39.379Z,24.5
2023-05-21T04:05:55.639Z,20.9
2023-05-21T04:07:10.893Z,25.5
2023-05-21T04:08:27.132Z,22.5
2023-05-21T04:09:43.357Z,21.8
2023-05-21T04:10:59.614Z,22.6
2023-05-21T04:12:15.839Z,24.3
2023-05-21T04:13:32.084Z,20.6
2023-05-21T04:14:48.337Z,23.9
2023-05-21T04:16:04.559Z,22.1
2023-05-21T04:17:20.816Z,20.9
2023-05-21T04:18:37.049Z,22.2
2023-05-21T04:19:53.294Z,22.2
2023-05-21T04:21:09.523Z,23
2023-05-21T04:22:25.761Z,23.2
2023-05-21T04:23:41.018Z,20.7
2023-05-21T04:24:57.262Z,21.3
2023-05-21T04:26:13.503Z,21.9
2023-05-21T04:27:29.755Z,21.3
2023-05-21T04:28:45.991Z,23.7
2023-05-21T04:30:02.223Z,21.1
2023-05-21T04:31:18.470Z,22.5
2023-05-21T04:32:34.718Z,23.1
2023-05-21T04:33:50.952Z,20.7
2023-05-21T04:35:07.193Z,22.9
2023-05-21T04:36:23.437Z,24.1
2023-05-21T04:37:39.665Z,22.4
2023-05-21T04:38:55.911Z,19.1
2023-05-21T04:40:11.175Z,23.7
2023-05-21T04:41:27.403Z,24.6
2023-05-21T04:42:43.641Z,20.7
2023-05-21T04:43:59.880Z,22.5
2023-05-21T04:45:16.127Z,25.3
2023-05-21T04:46:32.360Z,22.5
2023-05-21T04:47:48.606Z,22.9
2023-05-21T04:49:04.845Z,23.3
2023-05-21T04:50:21.101Z,23.1
2023-05-21T04:51:37.321Z,22.5
2023-05-21T04:52:53.574Z,19
2023-05-21T04:54:09.820Z,20.4
2023-05-21T04:55:26.042Z,20.7
2023-05-21T04:56:41.311Z,20.8
2023-05-21T04:57:57.541Z,21.3
2023-05-21T04:59:13.791Z,21.3
2023-05-21T05:00:30.019Z,20.9
2023-05-21T05:01:46.279Z,19.6
2023-05-21T05:03:02.517Z,21.7
2023-05-21T05:04:18.741Z,21.9
2023-05-21T05:05:34.996Z,21.7
2023-05-21T05:06:51.231Z,20.3
2023-05-21T05:08:07.481Z,24.1
2023-05-21T05:09:23.703Z,20.3
2023-05-21T05:10:39.961Z,19.1
2023-05-21T05:11:56.186Z,22.1
2023-05-21T05:13:11.452Z,26.4
2023-05-21T05:14:27.697Z,24.4
2023-05-21T05:15:43.937Z,18.8
2023-05-21T05:17:00.171Z,19.2
2023-05-21T05:18:16.415Z,21.9
2023-05-21T05:19:32.657Z,22.9
2023-05-21T05:20:48.895Z,21.3
2023-05-21T05:22:05.134Z,21.3
2023-05-21T05:23:21.371Z,23.7
2023-05-21T05:24:37.603Z,25
2023-05-21T05:25:53.852Z,21.7
2023-05-21T05:27:10.098Z,24.2
2023-05-21T05:28:26.342Z,22.7
2023-05-21T05:29:41.585Z,21.4
2023-05-21T05:30:57.838Z,20.4
2023-05-21T05:32:14.066Z,21.9
2023-05-21T05:33:30.316Z,18.9
2023-05-21T05:34:46.540Z,21.4
2023-05-21T05:36:02.792Z,20.5
2023-05-21T05:37:19.042Z,19.6
2023-05-21T05:38:35.278Z,21.2
2023-05-21T05:39:51.507Z,23.8
2023-05-21T05:41:07.760Z,20.1
2023-05-21T05:42:23.997Z,18.9
2023-05-21T05:43:40.226Z,19.9
2023-05-21T05:44:56.474Z,23.7
2023-05-21T05:46:11.732Z,20.5
2023-05-21T05:47:27.961Z,19.7
2023-05-21T05:48:44.204Z,20.6
2023-05-21T05:50:00.453Z,21.1
2023-05-21T05:51:16.686Z,21.8
2023-05-21T05:52:32.928Z,19.1
2023-05-21T05:53:49.179Z,21.2
2023-05-21T05:55:05.406Z,21.2
2023-05-21T05:56:21.652Z,20.7
2023-05-21T05:57:37.897Z,17.8
2023-05-21T05:58:54.130Z,18.2
2023-05-21T06:00:10.377Z,20.9
2023-05-21T06:01:26.611Z,21.4
2023-05-21T06:02:41.874Z,20.8
2023-05-21T06:03:58.114Z,21.8
2023-05-21T06:05:14.351Z,22.1
2023-05-21T06:06:30.584Z,18.1
2023-05-21T06:07:46.838Z,20.6
2023-05-21T06:09:03.061Z,19.8
2023-05-21T06:10:19.307Z,20.5
2023-05-21T06:11:35.560Z,22.7
2023-05-21T06:12:51.783Z,20.9
2023-05-21T06:14:08.034Z,20.4
2023-05-21T06:15:24.270Z,18.7
2023-05-21T06:16:40.523Z,19.1
2023-05-21T06:17:56.759Z,19.1
2023-05-21T06:19:12.011Z,19.6
2023-05-21T06:20:28.242Z,19.2
2023-05-21T06:21:44.487Z,25.3
2023-05-21T06:23:00.724Z,21.2
2023-05-21T06:24:16.971Z,18.8
2023-05-21T06:25:33.210Z,20.6
2023-05-21T06:26:48.464Z,21.1
2023-05-21T06:28:04.715Z,20.7
2023-05-21T06:29:20.951Z,18.4
2023-05-21T06:30:37.188Z,19.7
2023-05-21T06:31:53.436Z,20.9
2023-05-21T06:33:09.676Z,23
2023-05-21T06:34:25.918Z,19.9
2023-05-21T06:35:42.143Z,16.3
2023-05-21T06:36:58.393Z,20.4
2023-05-21T06:38:14.634Z,19.6
2023-05-21T06:39:30.879Z,17.9
2023-05-21T06:40:47.107Z,19.2
2023-05-21T06:42:03.358Z,21.7
2023-05-21T06:43:18.609Z,18.1
2023-05-21T06:44:34.858Z,19.4
2023-05-21T06:45:51.080Z,19.8
2023-05-21T06:47:07.338Z,17.7
2023-05-21T06:48:23.563Z,20.9
2023-05-21T06:49:39.809Z,17.4
2023-05-21T06:50:56.057Z,16.9
2023-05-21T06:52:12.290Z,18.9
2023-05-21T06:53:28.537Z,17.7
2023-05-21T06:54:44.766Z,20.5
2023-05-21T06:56:01.013Z,17.3
2023-05-21T06:57:17.260Z,18.3
2023-05-21T06:58:33.492Z,17.3
2023-05-21T06:59:48.749Z,18.1
2023-05-21T07:01:04.992Z,18.9
2023-05-21T07:02:21.230Z,17.8
2023-05-21T07:03:37.470Z,18.2
2023-05-21T07:04:53.716Z,18.4
2023-05-21T07:06:09.947Z,18.4
2023-05-21T07:07:26.180Z,19.3
2023-05-21T07:08:42.432Z,16.8
2023-05-21T07:09:58.661Z,20.5
2023-05-21T07:11:14.911Z,19.5
2023-05-21T07:12:31.157Z,18.6
2023-05-21T07:13:47.391Z,18.2
2023-05-21T07:15:03.625Z,18
2023-05-21T07:16:18.894Z,16.2
2023-05-21T07:17:35.131Z,18.9
2023-05-21T07:18:51.376Z,17.7
2023-05-21T07:20:07.605Z,17.2
2023-05-21T07:21:23.850Z,17.8
2023-05-21T07:22:40.087Z,20.5
2023-05-21T07:23:56.333Z,15.8
2023-05-21T07:25:12.557Z,17.7
2023-05-21T07:26:28.816Z,18
2023-05-21T07:27:45.045Z,16.3
2023-05-21T07:29:01.295Z,17.9
2023-05-21T07:30:17.520Z,18.9
2023-05-21T07:31:33.762Z,16.3
2023-05-21T07:32:49.026Z,18
2023-05-21T07:34:05.268Z,20.5
2023-05-21T07:35:21.501Z,15.5
2023-05-21T07:36:37.737Z,19.1
2023-05-21T07:37:53.983Z,15.9
2023-05-21T07:39:10.216Z,14.7
2023-05-21T07:40:26.476Z,16.5
2023-05-21T07:41:42.708Z,15.5
2023-05-21T07:42:58.949Z,18.2
2023-05-21T07:44:15.184Z,19.1
2023-05-21T07:45:31.424Z,17.9
2023-05-21T07:46:47.667Z,16.3
2023-05-21T07:48:03.899Z,17.1
2023-05-21T07:49:19.162Z,16.7
2023-05-21T07:50:35.404Z,18.5
2023-05-21T07:51:51.651Z,18.5
2023-05-21T07:53:07.882Z,16.5
2023-05-21T07:54:24.118Z,19.4
2023-05-21T07:55:40.365Z,16.3
2023-05-21T07:56:56.598Z,18.4
2023-05-21T07:58:12.844Z,16
2023-05-21T07:59:29.093Z,17.1
2023-05-21T08:00:45.315Z,16.2
2023-05-21T08:02:01.562Z,15.3
2023-05-21T08:03:17.808Z,15.8
2023-05-21T08:04:34.048Z,18.2
2023-05-21T08:05:49.290Z,16.9
2023-05-21T08:07:05.543Z,20.6
2023-05-21T08:08:21.779Z,17.4
2023-05-21T08:09:38.014Z,15.5
2023-05-21T08:10:54.261Z,17.5
2023-05-21T08:12:10.499Z,14.9
2023-05-21T08:13:26.747Z,20.6
2023-05-21T08:14:42.975Z,18.5
2023-05-21T08:15:59.222Z,15.5
2023-05-21T08:17:15.463Z,16.8
2023-05-21T08:18:31.711Z,19.1
2023-05-21T08:19:47.932Z,17.9
2023-05-21T08:21:04.187Z,15.9
2023-05-21T08:22:19.440Z,16.5
2023-05-21T08:23:35.686Z,16.3
2023-05-21T08:24:51.925Z,18.1
2023-05-21T08:26:08.157Z,13.9
2023-05-21T08:27:24.398Z,16
2023-05-21T08:28:40.642Z,17.5
2023-05-21T08:29:56.881Z,16.7
2023-05-21T08:31:13.113Z,14.7
2023-05-21T08:32:29.359Z,17.5
2023-05-21T08:33:45.602Z,18.6
2023-05-21T08:35:01.844Z,17.5
2023-05-21T08:36:18.082Z,17.1
2023-05-21T08:37:34.321Z,18.5
2023-05-21T08:38:49.576Z,15.9
2023-05-21T08:40:05.822Z,16.5
2023-05-21T08:41:22.052Z,17.3
2023-05-21T08:42:38.309Z,18.3
2023-05-21T08:43:54.545Z,16.2
2023-05-21T08:45:10.768Z,15.5
2023-05-21T08:46:27.025Z,17.9
2023-05-21T08:47:43.269Z,16.3
2023-05-21T08:48:59.507Z,15.5
2023-05-21T08:50:15.730Z,16.7
2023-05-21T08:51:31.986Z,17.7
2023-05-21T08:52:48.211Z,16.3
2023-05-21T08:54:04.465Z,16.1
2023-05-21T08:55:19.706Z,16.5
2023-05-21T08:56:35.950Z,14.4
2023-05-21T08:57:52.186Z,14.1
2023-05-21T08:59:08.428Z,15.2
2023-05-21T09:00:24.673Z,16.6
2023-05-21T09:01:40.909Z,16.8
2023-05-21T09:02:57.151Z,17.4
2023-05-21T09:04:13.394Z,13.8
2023-05-21T09:05:29.639Z,16.6
2023-05-21T09:06:45.885Z,15.6
2023-05-21T09:08:02.108Z,16.1
2023-05-21T09:09:18.357Z,13.5
2023-05-21T09:10:34.593Z,14.1
2023-05-21T09:11:49.866Z,13.6
2023-05-21T09:13:06.092Z,14.1
2023-05-21T09:14:22.335Z,13.4
2023-05-21T09:15:38.568Z,15.1
2023-05-21T09:16:54.815Z,18.1
2023-05-21T09:18:11.044Z,16.6
2023-05-21T09:19:27.297Z,13.4
2023-05-21T09:20:43.533Z,15.9
2023-05-21T09:21:59.779Z,13.9
2023-05-21T09:23:16.011Z,14.4
2023-05-21T09:24:32.247Z,16.5
2023-05-21T09:25:48.495Z,15.3
2023-05-21T09:27:04.731Z,15.8
2023-05-21T09:28:19.999Z,14.7
2023-05-21T09:29:36.234Z,16.2
2023-05-21T09:30:52.485Z,15.1
2023-05-21T09:32:08.708Z,12.9
2023-05-21T09:33:24.961Z,15
2023-05-21T09:34:41.197Z,17.6
2023-05-21T09:35:57.436Z,14.8
2023-05-21T09:37:13.668Z,16
2023-05-21T09:38:29.917Z,15.3
2023-05-21T09:39:46.164Z,14.6
2023-05-21T09:41:02.406Z,13.4
2023-05-21T09:42:18.637Z,15
2023-05-21T09:43:34.884Z,16.2
2023-05-21T09:44:50.138Z,12.9
2023-05-21T09:46:06.375Z,12.7
2023-05-21T09:47:22.613Z,14.3
2023-05-21T09:48:38.865Z,13.2
2023-05-21T09:49:55.088Z,13.4
2023-05-21T09:51:11.340Z,15.2
2023-05-21T09:52:27.581Z,13.5
2023-05-21T09:53:43.818Z,14
2023-05-21T09:55:00.057Z,13.3
2023-05-21T09:56:16.303Z,14.1
2023-05-21T09:57:32.527Z,15.4
2023-05-21T09:58:48.784Z,14.5
2023-05-21T10:00:05.027Z,13.5
2023-05-21T10:01:20.282Z,11.8
2023-05-21T10:02:36.507Z,12.9
2023-05-21T10:03:52.751Z,14.6
2023-05-21T10:05:08.990Z,13.9
2023-05-21T10:06:25.240Z,14.5
2023-05-21T10:07:41.481Z,14.2
2023-05-21T10:08:57.710Z,15.6
2023-05-21T10:10:13.957Z,14.3
2023-05-21T10:11:30.193Z,13
2023-05-21T10:12:46.427Z,12.4
2023-05-21T10:14:02.680Z,12.6
2023-05-21T10:15:18.918Z,12.1
2023-05-21T10:16:35.144Z,11.3
2023-05-21T10:17:50.399Z,12.7
2023-05-21T10:19:06.659Z,14
2023-05-21T10:20:22.888Z,12.7
2023-05-21T10:21:39.136Z,11.5
2023-05-21T10:22:55.367Z,12
2023-05-21T10:24:11.602Z,12.3
2023-05-21T10:25:27.852Z,11.9
2023-05-21T10:26:44.092Z,13.5
2023-05-21T10:28:00.330Z,13.5
2023-05-21T10:29:16.569Z,12.4
2023-05-21T10:30:32.801Z,11.9
2023-05-21T10:31:49.048Z,12
2023-05-21T10:33:05.293Z,11.2
2023-05-21T10:34:20.555Z,10.4
2023-05-21T10:35:36.783Z,9.8
2023-05-21T10:36:53.022Z,13.3
2023-05-21T10:38:09.276Z,12.4
2023-05-21T10:39:25.503Z,12.6
2023-05-21T10:40:41.738Z,12.3
2023-05-21T10:41:57.014Z,8.5
2023-05-21T10:43:13.250Z,8.9
2023-05-21T10:44:29.498Z,9.8
2023-05-21T10:45:45.720Z,9
2023-05-21T10:47:01.975Z,8.9
2023-05-21T10:48:18.218Z,8.7
2023-05-21T10:49:34.449Z,8.7
2023-05-21T10:50:50.690Z,12.4
2023-05-21T10:52:06.933Z,9.9
2023-05-21T10:53:23.180Z,8.8
2023-05-21T10:54:39.421Z,9.1
2023-05-21T10:55:55.656Z,8.8
2023-05-21T10:57:11.884Z,11.8
2023-05-21T10:58:27.149Z,9
2023-05-21T10:59:43.378Z,9.6
2023-05-21T11:00:59.620Z,9.8
2023-05-21T11:02:15.877Z,8.7
2023-05-21T11:03:32.112Z,8.7
2023-05-21T11:04:48.343Z,10.1
2023-05-21T11:06:04.579Z,9.6
2023-05-21T11:07:20.837Z,12.2
2023-05-21T11:08:37.063Z,11.3
2023-05-21T11:09:53.315Z,9.5
2023-05-21T11:11:09.552Z,10
2023-05-21T11:12:25.782Z,14.9
2023-05-21T11:13:42.038Z,10.1
2023-05-21T11:14:57.277Z,9.5
2023-05-21T11:16:13.537Z,11
2023-05-21T11:17:29.759Z,10.7
2023-05-21T11:18:46.011Z,9.6
2023-05-21T11:20:02.249Z,8.6
2023-05-21T11:21:18.481Z,10
2023-05-21T11:22:34.727Z,9.4
2023-05-21T11:23:50.959Z,9.5
2023-05-21T11:25:07.210Z,8.6
2023-05-21T11:26:23.443Z,8.9
2023-05-21T11:27:39.692Z,8.4
2023-05-21T11:28:55.927Z,10.2
2023-05-21T11:30:12.172Z,10.8
2023-05-21T11:31:27.430Z,9.2
2023-05-21T11:32:43.673Z,11.2
2023-05-21T11:33:59.912Z,9.3
2023-05-21T11:35:16.147Z,8.6
2023-05-21T11:36:32.375Z,9.6
2023-05-21T11:37:48.621Z,9.9
2023-05-21T11:39:04.000Z,10
2023-05-21T11:40:21.096Z,10.5
2023-05-21T11:41:37.356Z,13.4
2023-05-21T11:42:53.586Z,10
2023-05-21T11:44:09.830Z,9.5
2023-05-21T11:45:26.062Z,7.9
2023-05-21T11:46:42.304Z,9.3
2023-05-21T11:47:57.562Z,10.8
2023-05-21T11:49:13.804Z,10.9
2023-05-21T11:50:30.042Z,8.5
2023-05-21T11:51:46.289Z,12.4
2023-05-21T11:53:02.516Z,8.5
2023-05-21T11:54:18.762Z,7.7
2023-05-21T11:55:35.017Z,7.9
2023-05-21T11:56:51.234Z,9.9
2023-05-21T11:58:07.493Z,8.5
2023-05-21T11:59:23.726Z,9.6
2023-05-21T12:00:39.961Z,8.4
2023-05-21T12:01:56.201Z,7.9
2023-05-21T12:03:12.000Z,10.7
2023-05-21T12:04:27.697Z,9.7
2023-05-21T12:05:43.932Z,10
2023-05-21T12:07:00.182Z,9.8
2023-05-21T12:08:16.427Z,11.4
2023-05-21T12:09:32.657Z,9.9
2023-05-21T12:10:48.897Z,8.5
2023-05-21T12:12:05.137Z,10.7
2023-05-21T12:13:21.393Z,15.5
2023-05-21T12:14:37.622Z,9.5
2023-05-21T12:15:53.864Z,12.5
2023-05-21T12:17:10.104Z,11.4
2023-05-21T12:18:26.341Z,11.4
2023-05-21T12:19:42.591Z,9.6
2023-05-21T12:20:57.846Z,10.1
2023-05-21T12:22:14.088Z,8.6
2023-05-21T12:23:30.320Z,10.5
2023-05-21T12:24:46.554Z,8.3
2023-05-21T12:26:02.812Z,10.9
2023-05-21T12:27:19.041Z,10.5
2023-05-21T12:28:35.288Z,10.5
2023-05-21T12:29:51.522Z,10.3
2023-05-21T12:31:07.771Z,9.8
2023-05-21T12:32:24.011Z,9.9
2023-05-21T12:33:40.239Z,10
2023-05-21T12:34:56.488Z,9
2023-05-21T12:36:12.723Z,8.4
2023-05-21T12:37:27.990Z,8.3
2023-05-21T12:38:44.211Z,8.4
2023-05-21T12:40:00.466Z,9.1
2023-05-21T12:41:16.707Z,9.7
2023-05-21T12:42:32.937Z,9.4
2023-05-21T12:43:49.000Z,9.5
2023-05-21T12:45:05.423Z,10.9
2023-05-21T12:46:21.657Z,8.3
2023-05-21T12:47:37.910Z,11.4
2023-05-21T12:48:54.150Z,10
2023-05-21T12:50:10.385Z,10
2023-05-21T12:51:26.620Z,10
2023-05-21T12:52:42.863Z,9.8
2023-05-21T12:53:58.112Z,9.8
2023-05-21T12:55:14.352Z,9.8
2023-05-21T12:56:30.597Z,10.2
2023-05-21T12:57:46.844Z,10.5
2023-05-21T12:59:03.088Z,9
2023-05-21T13:00:19.321Z,9.4
2023-05-21T13:01:35.553Z,9.5
2023-05-21T13:02:51.792Z,9.5
2023-05-21T13:04:08.031Z,8.6
2023-05-21T13:05:24.277Z,8.8
2023-05-21T13:06:40.516Z,7.8
2023-05-21T13:07:56.773Z,9.7
2023-05-21T13:09:13.000Z,9.3
2023-05-21T13:10:28.268Z,9.6
2023-05-21T13:11:44.502Z,9.6
2023-05-21T13:13:00.730Z,11.4
2023-05-21T13:14:16.989Z,11.4
2023-05-21T13:15:33.220Z,10.6
2023-05-21T13:16:49.462Z,9.8
2023-05-21T13:18:05.707Z,10.9
2023-05-21T13:19:21.933Z,11.9
2023-05-21T13:20:38.188Z,11.1
2023-05-21T13:21:54.411Z,9.2
2023-05-21T13:23:10.664Z,11.5
2023-05-21T13:24:26.899Z,9
2023-05-21T13:25:43.149Z,9.9
2023-05-21T13:26:58.403Z,10
2023-05-21T13:28:14.640Z,10.3
2023-05-21T13:29:30.892Z,11.2
2023-05-21T13:30:47.113Z,9.5
2023-05-21T13:32:03.365Z,13.1
2023-05-21T13:33:19.588Z,10.7
2023-05-21T13:34:35.830Z,9.2
2023-05-21T13:35:52.092Z,10.4
2023-05-21T13:37:08.319Z,10.3
2023-05-21T13:38:24.555Z,9.6
2023-05-21T13:39:40.801Z,10.8
2023-05-21T13:40:57.032Z,8.9
2023-05-21T13:42:13.273Z,8
2023-05-21T13:43:28.544Z,8.4
2023-05-21T13:44:44.770Z,9
2023-05-21T13:46:01.014Z,7.7
2023-05-21T13:47:17.245Z,9.1
2023-05-21T13:48:33.505Z,9.2
2023-05-21T13:49:49.732Z,8.1
2023-05-21T13:51:05.976Z,8.7
2023-05-21T13:52:22.212Z,11.2
2023-05-21T13:53:38.454Z,7.7
2023-05-21T13:54:54.702Z,9.5
2023-05-21T13:56:10.928Z,12.4
2023-05-21T13:57:27.146Z,9
2023-05-21T13:58:43.395Z,8.5
2023-05-21T13:59:58.639Z,10.8
2023-05-21T14:01:14.892Z,8.5
2023-05-21T14:02:31.160Z,8.3
2023-05-21T14:03:47.355Z,8.3
2023-05-21T14:05:03.600Z,8.8
2023-05-21T14:06:19.880Z,8.5
2023-05-21T14:07:36.125Z,8.5
2023-05-21T14:08:52.323Z,10.5
2023-05-21T14:10:08.561Z,9.7
2023-05-21T14:11:24.814Z,10.7
2023-05-21T14:12:41.036Z,10.7
2023-05-21T14:13:57.290Z,8.2
2023-05-21T14:15:13.524Z,8.3
2023-05-21T14:16:28.781Z,9.2
2023-05-21T14:17:45.031Z,9.9
2023-05-21T14:19:01.255Z,9.5
2023-05-21T14:20:17.491Z,9.9
2023-05-21T14:21:33.732Z,9.8
2023-05-21T14:22:49.975Z,10.9
2023-05-21T14:24:06.213Z,10.3
2023-05-21T14:25:22.459Z,8.3
2023-05-21T14:26:38.694Z,10.4
2023-05-21T14:27:54.942Z,9.4
2023-05-21T14:29:11.218Z,8.7
2023-05-21T14:30:27.433Z,9.2
2023-05-21T14:31:43.656Z,8.5
2023-05-21T14:32:58.951Z,8.5
2023-05-21T14:34:15.164Z,8.1
2023-05-21T14:35:31.404Z,8.7
2023-05-21T14:36:47.650Z,8.3
2023-05-21T14:38:03.875Z,9.7
2023-05-21T14:39:20.122Z,8.5
2023-05-21T14:40:36.364Z,7.9
2023-05-21T14:41:52.596Z,8.1
2023-05-21T14:43:08.851Z,10.4
2023-05-21T14:44:25.077Z,8.6
2023-05-21T14:45:41.322Z,9.1
2023-05-21T14:46:57.562Z,9.4
2023-05-21T14:48:13.799Z,9
2023-05-21T14:49:29.106Z,8
2023-05-21T14:50:45.290Z,7.3
2023-05-21T14:52:01.534Z,8.8
2023-05-21T14:53:17.772Z,8.9
2023-05-21T14:54:34.016Z,9.3
2023-05-21T14:55:50.289Z,9.1
2023-05-21T14:57:05.518Z,10.1
2023-05-21T14:58:21.808Z,8.5
2023-05-21T14:59:38.010Z,13
2023-05-21T15:00:54.279Z,9.3
2023-05-21T15:02:10.484Z,9.7
2023-05-21T15:03:26.713Z,9.2
2023-05-21T15:04:42.992Z,8.8
2023-05-21T15:05:59.193Z,8.3
2023-05-21T15:07:15.446Z,8.6
2023-05-21T15:08:31.685Z,10
2023-05-21T15:09:47.928Z,9.7
2023-05-21T15:11:04.201Z,10
2023-05-21T15:12:20.398Z,8.9
2023-05-21T15:13:35.653Z,7.1
2023-05-21T15:14:51.902Z,8.5
2023-05-21T15:16:08.167Z,7.4
2023-05-21T15:17:24.383Z,7.4
2023-05-21T15:18:40.624Z,8.5
2023-05-21T15:19:56.857Z,7.7
2023-05-21T15:21:13.105Z,7
2023-05-21T15:22:29.341Z,8.2
2023-05-21T15:23:45.570Z,9.3
2023-05-21T15:25:01.820Z,8.6
2023-05-21T15:26:18.051Z,8.5
2023-05-21T15:27:34.289Z,10
2023-05-21T15:28:50.537Z,8.9
2023-05-21T15:30:05.787Z,8.7
2023-05-21T15:31:22.040Z,7.9
2023-05-21T15:32:38.283Z,8.9
2023-05-21T15:33:54.507Z,9.1
2023-05-21T15:35:10.745Z,8.8
2023-05-21T15:36:27.000Z,8.7
2023-05-21T15:37:43.225Z,8.1
2023-05-21T15:38:59.511Z,10.3
2023-05-21T15:40:15.711Z,10.1
2023-05-21T15:41:31.953Z,7.8
2023-05-21T15:42:48.204Z,8.6
2023-05-21T15:44:04.427Z,8.4
2023-05-21T15:45:20.679Z,8.1
2023-05-21T15:46:35.937Z,9.3
2023-05-21T15:47:52.165Z,8.2
2023-05-21T15:49:08.404Z,7.9
2023-05-21T15:50:24.698Z,9.8
2023-05-21T15:51:40.893Z,9.6
2023-05-21T15:52:57.131Z,9
2023-05-21T15:54:13.374Z,9.3
2023-05-21T15:55:29.612Z,10.2
2023-05-21T15:56:45.887Z,9.4
2023-05-21T15:58:02.088Z,10.4
2023-05-21T15:59:18.326Z,8.5
2023-05-21T16:00:34.566Z,11.1
2023-05-21T16:01:50.811Z,9.7
2023-05-21T16:03:06.069Z,9.7
2023-05-21T16:04:22.302Z,10
2023-05-21T16:05:38.547Z,9.2
2023-05-21T16:06:54.784Z,9.8
2023-05-21T16:08:11.034Z,10.1
2023-05-21T16:09:27.266Z,11.5
2023-05-21T16:10:43.509Z,8.8
2023-05-21T16:11:59.759Z,10.4
2023-05-21T16:13:15.991Z,8.1
2023-05-21T16:14:32.230Z,9.4
2023-05-21T16:15:48.469Z,9.2
2023-05-21T16:17:04.703Z,10.5
2023-05-21T16:18:20.953Z,9.6
2023-05-21T16:19:36.200Z,14.7
2023-05-21T16:20:52.436Z,8.8
2023-05-21T16:22:08.697Z,8.9
2023-05-21T16:23:24.927Z,10.2
2023-05-21T16:24:41.174Z,11.7
2023-05-21T16:25:57.402Z,10.1
2023-05-21T16:27:13.653Z,11.3
2023-05-21T16:29:46.123Z,9.2
2023-05-21T16:31:02.375Z,11.1
2023-05-21T16:32:18.600Z,12
2023-05-21T16:33:34.846Z,10.6
2023-05-21T16:34:51.082Z,7.9
2023-05-21T16:36:06.336Z,10
2023-05-21T16:37:22.581Z,7
2023-05-21T16:38:38.834Z,9.9
2023-05-21T16:41:11.302Z,9.7
2023-05-21T16:42:27.538Z,9.9
2023-05-21T16:43:43.779Z,8.3
2023-05-21T16:45:00.020Z,8.8
2023-05-21T16:47:32.501Z,8.9
2023-05-21T16:48:47.760Z,7.4
2023-05-21T16:50:03.033Z,8
2023-05-21T16:51:18.331Z,8.4
2023-05-21T16:52:34.521Z,6.8
2023-05-21T16:53:50.763Z,7.7
2023-05-21T16:55:07.011Z,6.8
2023-05-21T16:56:23.274Z,7.5
2023-05-21T16:57:39.528Z,7
2023-05-21T16:58:55.717Z,7.2
2023-05-21T17:00:12.011Z,7.8
2023-05-21T17:01:28.207Z,6.6
2023-05-21T17:02:43.500Z,8
2023-05-21T17:03:58.723Z,7.9
2023-05-21T17:05:14.958Z,8.9
2023-05-21T17:06:31.205Z,7.1
2023-05-21T17:07:47.450Z,8.3
2023-05-21T17:09:03.690Z,7.8
2023-05-21T17:10:19.960Z,7.8
2023-05-21T17:11:36.159Z,7.6
2023-05-21T17:12:52.395Z,10
2023-05-21T17:14:08.641Z,7.8